sensor_id;sensor_type;location;lat;lon;timestamp;temperature;humidity
698;DHT22;331;48.414;9.938;2023-04-25T00:02:13;9.30;99.90
698;DHT22;331;48.414;9.938;2023-04-25T00:04:42;9.30;99.90
698;DHT22;331;48.414;9.938;2023-04-25T00:07:09;9.30;99.90
698;DHT22;331;48.414;9.938;2023-04-25T00:09:35;9.20;99.90
698;DHT22;331;48.414;9.938;2023-04-25T00:12:04;9.20;99.90
698;DHT22;331;48.414;9.938;2023-04-25T00:14:31;9.20;99.90
698;DHT22;331;48.414;9.938;2023-04-25T00:16:59;9.20;99.90
698;DHT22;331;48.414;9.938;2023-04-25T00:19:26;9.20;99.90
698;DHT22;331;48.414;9.938;2023-04-25T00:21:53;9.20;99.90
698;DHT22;331;48.414;9.938;2023-04-25T00:24:20;9.10;99.90
698;DHT22;331;48.414;9.938;2023-04-25T00:26:47;9.20;99.90
698;DHT22;331;48.414;9.938;2023-04-25T00:29:15;9.10;99.90
698;DHT22;331;48.414;9.938;2023-04-25T00:31:42;9.10;99.90
698;DHT22;331;48.414;9.938;2023-04-25T00:34:09;9.10;99.90
698;DHT22;331;48.414;9.938;2023-04-25T00:36:36;9.10;99.90
698;DHT22;331;48.414;9.938;2023-04-25T00:39:03;9.10;99.90
698;DHT22;331;48.414;9.938;2023-04-25T00:41:32;9.10;99.90
698;DHT22;331;48.414;9.938;2023-04-25T00:43:59;9.10;99.90
698;DHT22;331;48.414;9.938;2023-04-25T00:46:28;9.10;99.90
698;DHT22;331;48.414;9.938;2023-04-25T00:48:55;9.10;99.90
698;DHT22;331;48.414;9.938;2023-04-25T00:51:22;9.10;99.90
698;DHT22;331;48.414;9.938;2023-04-25T00:53:49;9.10;99.90
698;DHT22;331;48.414;9.938;2023-04-25T00:56:16;9.00;99.90
698;DHT22;331;48.414;9.938;2023-04-25T00:58:43;9.00;99.90
698;DHT22;331;48.414;9.938;2023-04-25T01:01:10;9.00;99.90
698;DHT22;331;48.414;9.938;2023-04-25T01:03:39;9.00;99.90
698;DHT22;331;48.414;9.938;2023-04-25T01:06:07;9.00;99.90
698;DHT22;331;48.414;9.938;2023-04-25T01:08:34;9.00;99.90
698;DHT22;331;48.414;9.938;2023-04-25T01:11:01;9.00;99.90
698;DHT22;331;48.414;9.938;2023-04-25T01:13:28;9.00;99.90
698;DHT22;331;48.414;9.938;2023-04-25T01:15:55;9.00;99.90
698;DHT22;331;48.414;9.938;2023-04-25T01:18:22;8.90;99.90
698;DHT22;331;48.414;9.938;2023-04-25T01:20:51;8.90;99.90
698;DHT22;331;48.414;9.938;2023-04-25T01:23:20;8.90;99.90
698;DHT22;331;48.414;9.938;2023-04-25T01:25:48;8.90;99.90
698;DHT22;331;48.414;9.938;2023-04-25T01:28:15;8.90;99.90
698;DHT22;331;48.414;9.938;2023-04-25T01:30:42;8.90;99.90
698;DHT22;331;48.414;9.938;2023-04-25T01:33:09;8.90;99.90
698;DHT22;331;48.414;9.938;2023-04-25T01:35:37;8.90;99.90
698;DHT22;331;48.414;9.938;2023-04-25T01:38:05;8.90;99.90
698;DHT22;331;48.414;9.938;2023-04-25T01:40:33;8.90;99.90
698;DHT22;331;48.414;9.938;2023-04-25T01:43:01;8.80;99.90
698;DHT22;331;48.414;9.938;2023-04-25T01:45:28;8.80;99.90
698;DHT22;331;48.414;9.938;2023-04-25T01:50:24;8.80;99.90
698;DHT22;331;48.414;9.938;2023-04-25T01:52:51;8.80;99.90
698;DHT22;331;48.414;9.938;2023-04-25T01:55:19;8.80;99.90
698;DHT22;331;48.414;9.938;2023-04-25T01:58:00;8.80;99.90
698;DHT22;331;48.414;9.938;2023-04-25T02:00:50;8.80;99.90
698;DHT22;331;48.414;9.938;2023-04-25T02:03:16;8.80;99.90
698;DHT22;331;48.414;9.938;2023-04-25T02:05:43;8.70;99.90
698;DHT22;331;48.414;9.938;2023-04-25T02:08:12;8.70;99.90
698;DHT22;331;48.414;9.938;2023-04-25T02:10:38;8.70;99.90
698;DHT22;331;48.414;9.938;2023-04-25T02:13:18;8.70;99.90
698;DHT22;331;48.414;9.938;2023-04-25T02:16:08;8.70;99.90
698;DHT22;331;48.414;9.938;2023-04-25T02:18:37;8.70;99.90
698;DHT22;331;48.414;9.938;2023-04-25T02:21:06;8.70;99.90
698;DHT22;331;48.414;9.938;2023-04-25T02:23:32;8.70;99.90
698;DHT22;331;48.414;9.938;2023-04-25T02:25:59;8.70;99.90
698;DHT22;331;48.414;9.938;2023-04-25T02:28:28;8.70;99.90
698;DHT22;331;48.414;9.938;2023-04-25T02:30:54;8.70;99.90
698;DHT22;331;48.414;9.938;2023-04-25T02:33:23;8.70;99.90
698;DHT22;331;48.414;9.938;2023-04-25T02:35:50;8.60;99.90
698;DHT22;331;48.414;9.938;2023-04-25T02:38:17;8.60;99.90
698;DHT22;331;48.414;9.938;2023-04-25T02:40:44;8.60;99.90
698;DHT22;331;48.414;9.938;2023-04-25T02:43:11;8.60;99.90
698;DHT22;331;48.414;9.938;2023-04-25T02:45:40;8.60;99.90
698;DHT22;331;48.414;9.938;2023-04-25T02:48:07;8.60;99.90
698;DHT22;331;48.414;9.938;2023-04-25T02:50:34;8.60;99.90
698;DHT22;331;48.414;9.938;2023-04-25T02:53:01;8.60;99.90
698;DHT22;331;48.414;9.938;2023-04-25T02:55:34;8.60;99.90
698;DHT22;331;48.414;9.938;2023-04-25T02:58:03;8.60;99.90
698;DHT22;331;48.414;9.938;2023-04-25T03:00:47;8.60;99.90
698;DHT22;331;48.414;9.938;2023-04-25T03:03:15;8.60;99.90
698;DHT22;331;48.414;9.938;2023-04-25T03:05:43;8.60;99.90
698;DHT22;331;48.414;9.938;2023-04-25T03:08:10;8.50;99.90
698;DHT22;331;48.414;9.938;2023-04-25T03:10:38;8.50;99.90
698;DHT22;331;48.414;9.938;2023-04-25T03:13:07;8.50;99.90
698;DHT22;331;48.414;9.938;2023-04-25T03:15:34;8.50;99.90
698;DHT22;331;48.414;9.938;2023-04-25T03:18:03;8.50;99.90
698;DHT22;331;48.414;9.938;2023-04-25T03:20:30;8.50;99.90
698;DHT22;331;48.414;9.938;2023-04-25T03:22:57;8.50;99.90
698;DHT22;331;48.414;9.938;2023-04-25T03:25:27;8.50;99.90
698;DHT22;331;48.414;9.938;2023-04-25T03:27:54;8.50;99.90
698;DHT22;331;48.414;9.938;2023-04-25T03:30:21;8.50;99.90
698;DHT22;331;48.414;9.938;2023-04-25T03:32:48;8.50;99.90
698;DHT22;331;48.414;9.938;2023-04-25T03:35:18;8.50;99.90
698;DHT22;331;48.414;9.938;2023-04-25T03:37:45;8.40;99.90
698;DHT22;331;48.414;9.938;2023-04-25T03:40:19;8.40;99.90
698;DHT22;331;48.414;9.938;2023-04-25T03:43:05;8.40;99.90
698;DHT22;331;48.414;9.938;2023-04-25T03:45:33;8.40;99.90
698;DHT22;331;48.414;9.938;2023-04-25T03:48:01;8.40;99.90
698;DHT22;331;48.414;9.938;2023-04-25T03:50:31;8.40;99.90
698;DHT22;331;48.414;9.938;2023-04-25T03:52:58;8.40;99.90
698;DHT22;331;48.414;9.938;2023-04-25T03:55:29;8.40;99.90
698;DHT22;331;48.414;9.938;2023-04-25T03:57:57;8.40;99.90
698;DHT22;331;48.414;9.938;2023-04-25T04:00:24;8.40;99.90
698;DHT22;331;48.414;9.938;2023-04-25T04:02:52;8.40;99.90
698;DHT22;331;48.414;9.938;2023-04-25T04:05:18;8.40;99.90
698;DHT22;331;48.414;9.938;2023-04-25T04:07:53;8.30;99.90
698;DHT22;331;48.414;9.938;2023-04-25T04:10:20;8.30;99.90
698;DHT22;331;48.414;9.938;2023-04-25T04:12:47;8.30;99.90
698;DHT22;331;48.414;9.938;2023-04-25T04:15:14;8.40;99.90
698;DHT22;331;48.414;9.938;2023-04-25T04:17:43;8.30;99.90
698;DHT22;331;48.414;9.938;2023-04-25T04:20:10;8.30;99.90
698;DHT22;331;48.414;9.938;2023-04-25T04:22:38;8.40;99.90
698;DHT22;331;48.414;9.938;2023-04-25T04:25:10;8.30;99.90
698;DHT22;331;48.414;9.938;2023-04-25T04:27:56;8.30;99.90
698;DHT22;331;48.414;9.938;2023-04-25T04:30:36;8.30;99.90
698;DHT22;331;48.414;9.938;2023-04-25T04:33:07;8.30;99.90
698;DHT22;331;48.414;9.938;2023-04-25T04:35:34;8.30;99.90
698;DHT22;331;48.414;9.938;2023-04-25T04:38:01;8.30;99.90
698;DHT22;331;48.414;9.938;2023-04-25T04:40:33;8.30;99.90
698;DHT22;331;48.414;9.938;2023-04-25T04:43:14;8.30;99.90
698;DHT22;331;48.414;9.938;2023-04-25T04:46:08;8.20;99.90
698;DHT22;331;48.414;9.938;2023-04-25T04:48:54;8.30;99.90
698;DHT22;331;48.414;9.938;2023-04-25T04:51:45;8.20;99.90
698;DHT22;331;48.414;9.938;2023-04-25T04:54:50;8.30;99.90
698;DHT22;331;48.414;9.938;2023-04-25T04:57:47;8.20;99.90
698;DHT22;331;48.414;9.938;2023-04-25T05:00:39;8.20;99.90
698;DHT22;331;48.414;9.938;2023-04-25T05:03:12;8.20;99.90
698;DHT22;331;48.414;9.938;2023-04-25T05:05:56;8.20;99.90
698;DHT22;331;48.414;9.938;2023-04-25T05:08:42;8.20;99.90
698;DHT22;331;48.414;9.938;2023-04-25T05:11:25;8.10;99.90
698;DHT22;331;48.414;9.938;2023-04-25T05:14:17;8.10;99.90
698;DHT22;331;48.414;9.938;2023-04-25T05:16:48;8.10;99.90
698;DHT22;331;48.414;9.938;2023-04-25T05:19:32;8.10;99.90
698;DHT22;331;48.414;9.938;2023-04-25T05:22:19;8.20;99.90
698;DHT22;331;48.414;9.938;2023-04-25T05:25:08;8.10;99.90
698;DHT22;331;48.414;9.938;2023-04-25T05:27:59;8.10;99.90
698;DHT22;331;48.414;9.938;2023-04-25T05:30:46;8.10;99.90
698;DHT22;331;48.414;9.938;2023-04-25T05:33:35;8.10;99.90
698;DHT22;331;48.414;9.938;2023-04-25T05:36:02;8.10;99.90
698;DHT22;331;48.414;9.938;2023-04-25T05:38:31;8.10;99.90
698;DHT22;331;48.414;9.938;2023-04-25T05:41:17;8.10;99.90
698;DHT22;331;48.414;9.938;2023-04-25T05:43:58;8.10;99.90
698;DHT22;331;48.414;9.938;2023-04-25T05:46:47;8.10;99.90
698;DHT22;331;48.414;9.938;2023-04-25T05:49:13;8.10;99.90
698;DHT22;331;48.414;9.938;2023-04-25T05:51:55;8.00;99.90
698;DHT22;331;48.414;9.938;2023-04-25T05:54:27;8.00;99.90
698;DHT22;331;48.414;9.938;2023-04-25T05:56:55;8.10;99.90
698;DHT22;331;48.414;9.938;2023-04-25T05:59:22;8.00;99.90
698;DHT22;331;48.414;9.938;2023-04-25T06:01:51;8.00;99.90
698;DHT22;331;48.414;9.938;2023-04-25T06:04:18;8.00;99.90
698;DHT22;331;48.414;9.938;2023-04-25T06:06:45;8.00;99.90
698;DHT22;331;48.414;9.938;2023-04-25T06:09:12;8.10;99.90
698;DHT22;331;48.414;9.938;2023-04-25T06:11:38;8.10;99.90
698;DHT22;331;48.414;9.938;2023-04-25T06:14:05;8.00;99.90
698;DHT22;331;48.414;9.938;2023-04-25T06:16:36;8.10;99.90
698;DHT22;331;48.414;9.938;2023-04-25T06:19:04;8.00;99.90
698;DHT22;331;48.414;9.938;2023-04-25T06:21:31;8.00;99.90
698;DHT22;331;48.414;9.938;2023-04-25T06:23:58;8.00;99.90
698;DHT22;331;48.414;9.938;2023-04-25T06:26:27;8.00;99.90
698;DHT22;331;48.414;9.938;2023-04-25T06:28:54;8.00;99.90
698;DHT22;331;48.414;9.938;2023-04-25T06:31:22;8.00;99.90
698;DHT22;331;48.414;9.938;2023-04-25T06:33:50;8.00;99.90
698;DHT22;331;48.414;9.938;2023-04-25T06:36:21;8.00;99.90
698;DHT22;331;48.414;9.938;2023-04-25T06:38:53;8.00;99.90
698;DHT22;331;48.414;9.938;2023-04-25T06:41:20;8.00;99.90
698;DHT22;331;48.414;9.938;2023-04-25T06:43:47;8.00;99.90
698;DHT22;331;48.414;9.938;2023-04-25T06:46:24;8.00;99.90
698;DHT22;331;48.414;9.938;2023-04-25T06:48:52;8.00;99.90
698;DHT22;331;48.414;9.938;2023-04-25T06:51:19;8.00;99.90
698;DHT22;331;48.414;9.938;2023-04-25T06:53:47;8.00;99.90
698;DHT22;331;48.414;9.938;2023-04-25T06:56:24;8.00;99.90
698;DHT22;331;48.414;9.938;2023-04-25T06:59:02;8.00;99.90
698;DHT22;331;48.414;9.938;2023-04-25T07:01:36;8.00;99.90
698;DHT22;331;48.414;9.938;2023-04-25T07:04:08;8.00;99.90
698;DHT22;331;48.414;9.938;2023-04-25T07:06:40;8.00;99.90
698;DHT22;331;48.414;9.938;2023-04-25T07:09:13;8.00;99.90
698;DHT22;331;48.414;9.938;2023-04-25T07:11:44;8.00;99.90
698;DHT22;331;48.414;9.938;2023-04-25T07:14:11;8.00;99.90
698;DHT22;331;48.414;9.938;2023-04-25T07:16:38;8.00;99.90
698;DHT22;331;48.414;9.938;2023-04-25T07:19:05;8.00;99.90
698;DHT22;331;48.414;9.938;2023-04-25T07:21:32;8.00;99.90
698;DHT22;331;48.414;9.938;2023-04-25T07:24:01;8.00;99.90
698;DHT22;331;48.414;9.938;2023-04-25T07:26:34;8.00;99.90
698;DHT22;331;48.414;9.938;2023-04-25T07:29:33;8.00;99.90
698;DHT22;331;48.414;9.938;2023-04-25T07:32:03;8.00;99.90
698;DHT22;331;48.414;9.938;2023-04-25T07:34:31;8.00;99.90
698;DHT22;331;48.414;9.938;2023-04-25T07:36:58;8.00;99.90
698;DHT22;331;48.414;9.938;2023-04-25T07:39:29;8.00;99.90
698;DHT22;331;48.414;9.938;2023-04-25T07:41:57;8.00;99.90
698;DHT22;331;48.414;9.938;2023-04-25T07:44:28;8.10;99.90
698;DHT22;331;48.414;9.938;2023-04-25T07:46:56;8.00;99.90
698;DHT22;331;48.414;9.938;2023-04-25T07:49:23;8.10;99.90
698;DHT22;331;48.414;9.938;2023-04-25T07:51:49;8.10;99.90
698;DHT22;331;48.414;9.938;2023-04-25T07:54:19;8.10;99.90
698;DHT22;331;48.414;9.938;2023-04-25T07:56:51;8.10;99.90
698;DHT22;331;48.414;9.938;2023-04-25T07:59:20;8.10;99.90
698;DHT22;331;48.414;9.938;2023-04-25T08:01:47;8.10;99.90
698;DHT22;331;48.414;9.938;2023-04-25T08:04:15;8.10;99.90
698;DHT22;331;48.414;9.938;2023-04-25T08:06:52;8.10;99.90
698;DHT22;331;48.414;9.938;2023-04-25T08:09:23;8.10;99.90
698;DHT22;331;48.414;9.938;2023-04-25T08:11:51;8.10;99.90
698;DHT22;331;48.414;9.938;2023-04-25T08:14:26;8.20;99.90
698;DHT22;331;48.414;9.938;2023-04-25T08:16:54;8.10;99.90
698;DHT22;331;48.414;9.938;2023-04-25T08:19:21;8.20;99.90
698;DHT22;331;48.414;9.938;2023-04-25T08:21:48;8.20;99.90
698;DHT22;331;48.414;9.938;2023-04-25T08:24:21;8.20;99.90
698;DHT22;331;48.414;9.938;2023-04-25T08:26:48;8.20;99.90
698;DHT22;331;48.414;9.938;2023-04-25T08:29:17;8.20;99.90
698;DHT22;331;48.414;9.938;2023-04-25T08:31:46;8.20;99.90
698;DHT22;331;48.414;9.938;2023-04-25T08:34:13;8.20;99.90
698;DHT22;331;48.414;9.938;2023-04-25T08:36:47;8.20;99.90
698;DHT22;331;48.414;9.938;2023-04-25T08:39:37;8.20;99.90
698;DHT22;331;48.414;9.938;2023-04-25T08:42:26;8.20;99.90
698;DHT22;331;48.414;9.938;2023-04-25T08:44:53;8.30;99.90
698;DHT22;331;48.414;9.938;2023-04-25T08:47:25;8.30;99.90
698;DHT22;331;48.414;9.938;2023-04-25T08:49:56;8.30;99.90
698;DHT22;331;48.414;9.938;2023-04-25T08:52:23;8.30;99.90
698;DHT22;331;48.414;9.938;2023-04-25T08:54:51;8.30;99.90
698;DHT22;331;48.414;9.938;2023-04-25T08:57:20;8.30;99.90
698;DHT22;331;48.414;9.938;2023-04-25T08:59:48;8.30;99.90
698;DHT22;331;48.414;9.938;2023-04-25T09:02:16;8.30;99.90
698;DHT22;331;48.414;9.938;2023-04-25T09:04:49;8.40;99.90
698;DHT22;331;48.414;9.938;2023-04-25T09:07:16;8.40;99.90
698;DHT22;331;48.414;9.938;2023-04-25T09:09:46;8.40;99.90
698;DHT22;331;48.414;9.938;2023-04-25T09:12:17;8.40;99.90
698;DHT22;331;48.414;9.938;2023-04-25T09:14:50;8.40;99.90
698;DHT22;331;48.414;9.938;2023-04-25T09:17:41;8.40;99.90
698;DHT22;331;48.414;9.938;2023-04-25T09:20:12;8.40;99.90
698;DHT22;331;48.414;9.938;2023-04-25T09:22:39;8.50;99.90
698;DHT22;331;48.414;9.938;2023-04-25T09:25:08;8.50;99.90
698;DHT22;331;48.414;9.938;2023-04-25T09:27:36;8.50;99.90
698;DHT22;331;48.414;9.938;2023-04-25T09:30:16;8.50;99.90
698;DHT22;331;48.414;9.938;2023-04-25T09:33:04;8.50;99.90
698;DHT22;331;48.414;9.938;2023-04-25T09:35:39;8.50;99.90
698;DHT22;331;48.414;9.938;2023-04-25T09:38:09;8.50;99.90
698;DHT22;331;48.414;9.938;2023-04-25T09:40:55;8.50;99.90
698;DHT22;331;48.414;9.938;2023-04-25T09:43:39;8.50;99.90
698;DHT22;331;48.414;9.938;2023-04-25T09:46:07;8.50;99.90
698;DHT22;331;48.414;9.938;2023-04-25T09:48:38;8.50;99.90
698;DHT22;331;48.414;9.938;2023-04-25T09:51:08;8.50;99.90
698;DHT22;331;48.414;9.938;2023-04-25T09:53:36;8.50;99.90
698;DHT22;331;48.414;9.938;2023-04-25T09:56:12;8.50;99.90
698;DHT22;331;48.414;9.938;2023-04-25T09:58:40;8.50;99.90
698;DHT22;331;48.414;9.938;2023-04-25T10:01:09;8.50;99.90
698;DHT22;331;48.414;9.938;2023-04-25T10:03:47;8.50;99.90
698;DHT22;331;48.414;9.938;2023-04-25T10:06:34;8.50;99.90
698;DHT22;331;48.414;9.938;2023-04-25T10:09:09;8.50;99.90
698;DHT22;331;48.414;9.938;2023-04-25T10:11:37;8.50;99.90
698;DHT22;331;48.414;9.938;2023-04-25T10:14:05;8.50;99.90
698;DHT22;331;48.414;9.938;2023-04-25T10:16:32;8.50;99.90
698;DHT22;331;48.414;9.938;2023-04-25T10:18:58;8.50;99.90
698;DHT22;331;48.414;9.938;2023-04-25T10:21:26;8.50;99.90
698;DHT22;331;48.414;9.938;2023-04-25T10:23:56;8.50;99.90
698;DHT22;331;48.414;9.938;2023-04-25T10:26:23;8.50;99.90
698;DHT22;331;48.414;9.938;2023-04-25T10:28:57;8.50;99.90
698;DHT22;331;48.414;9.938;2023-04-25T10:31:24;8.40;99.90
698;DHT22;331;48.414;9.938;2023-04-25T10:33:51;8.40;99.90
698;DHT22;331;48.414;9.938;2023-04-25T10:36:18;8.40;99.90
698;DHT22;331;48.414;9.938;2023-04-25T10:38:47;8.40;99.90
698;DHT22;331;48.414;9.938;2023-04-25T10:41:15;8.40;99.90
698;DHT22;331;48.414;9.938;2023-04-25T10:43:44;8.40;99.90
698;DHT22;331;48.414;9.938;2023-04-25T10:46:18;8.40;99.90
698;DHT22;331;48.414;9.938;2023-04-25T10:48:45;8.40;99.90
698;DHT22;331;48.414;9.938;2023-04-25T10:51:18;8.40;99.90
698;DHT22;331;48.414;9.938;2023-04-25T10:53:45;8.40;99.90
698;DHT22;331;48.414;9.938;2023-04-25T10:56:18;8.40;99.90
698;DHT22;331;48.414;9.938;2023-04-25T10:58:45;8.40;99.90
698;DHT22;331;48.414;9.938;2023-04-25T11:01:12;8.40;99.90
698;DHT22;331;48.414;9.938;2023-04-25T11:03:40;8.40;99.90
698;DHT22;331;48.414;9.938;2023-04-25T11:06:10;8.40;99.90
698;DHT22;331;48.414;9.938;2023-04-25T11:08:42;8.40;99.90
698;DHT22;331;48.414;9.938;2023-04-25T11:11:13;8.40;99.90
698;DHT22;331;48.414;9.938;2023-04-25T11:13:42;8.40;99.90
698;DHT22;331;48.414;9.938;2023-04-25T11:16:11;8.40;99.90
698;DHT22;331;48.414;9.938;2023-04-25T11:18:40;8.40;99.90
698;DHT22;331;48.414;9.938;2023-04-25T11:21:07;8.40;99.90
698;DHT22;331;48.414;9.938;2023-04-25T11:23:34;8.40;99.90
698;DHT22;331;48.414;9.938;2023-04-25T11:26:02;8.40;99.90
698;DHT22;331;48.414;9.938;2023-04-25T11:28:28;8.40;99.90
698;DHT22;331;48.414;9.938;2023-04-25T11:30:57;8.40;99.90
698;DHT22;331;48.414;9.938;2023-04-25T11:33:24;8.40;99.90
698;DHT22;331;48.414;9.938;2023-04-25T11:35:52;8.40;99.90
698;DHT22;331;48.414;9.938;2023-04-25T11:38:19;8.40;99.90
698;DHT22;331;48.414;9.938;2023-04-25T11:40:49;8.40;99.90
698;DHT22;331;48.414;9.938;2023-04-25T11:43:16;8.40;99.90
698;DHT22;331;48.414;9.938;2023-04-25T11:45:45;8.40;99.90
698;DHT22;331;48.414;9.938;2023-04-25T11:48:17;8.40;99.90
698;DHT22;331;48.414;9.938;2023-04-25T11:50:44;8.40;99.90
698;DHT22;331;48.414;9.938;2023-04-25T11:53:11;8.40;99.90
698;DHT22;331;48.414;9.938;2023-04-25T11:55:38;8.40;99.90
698;DHT22;331;48.414;9.938;2023-04-25T11:58:05;8.40;99.90
698;DHT22;331;48.414;9.938;2023-04-25T12:00:32;8.40;99.90
698;DHT22;331;48.414;9.938;2023-04-25T12:02:59;8.40;99.90
698;DHT22;331;48.414;9.938;2023-04-25T12:05:29;8.40;99.90
698;DHT22;331;48.414;9.938;2023-04-25T12:08:09;8.40;99.90
698;DHT22;331;48.414;9.938;2023-04-25T12:10:36;8.40;99.90
698;DHT22;331;48.414;9.938;2023-04-25T12:13:17;8.40;99.90
698;DHT22;331;48.414;9.938;2023-04-25T12:15:44;8.40;99.90
698;DHT22;331;48.414;9.938;2023-04-25T12:18:10;8.40;99.90
698;DHT22;331;48.414;9.938;2023-04-25T12:20:39;8.40;99.90
698;DHT22;331;48.414;9.938;2023-04-25T12:23:06;8.40;99.90
698;DHT22;331;48.414;9.938;2023-04-25T12:25:34;8.30;99.90
698;DHT22;331;48.414;9.938;2023-04-25T12:28:10;8.40;99.90
698;DHT22;331;48.414;9.938;2023-04-25T12:30:51;8.40;99.90
698;DHT22;331;48.414;9.938;2023-04-25T12:33:18;8.30;99.90
698;DHT22;331;48.414;9.938;2023-04-25T12:35:46;8.40;99.90
698;DHT22;331;48.414;9.938;2023-04-25T12:38:20;8.30;99.90
698;DHT22;331;48.414;9.938;2023-04-25T12:40:47;8.30;99.90
698;DHT22;331;48.414;9.938;2023-04-25T12:43:15;8.30;99.90
698;DHT22;331;48.414;9.938;2023-04-25T12:45:41;8.30;99.90
698;DHT22;331;48.414;9.938;2023-04-25T12:48:09;8.30;99.90
698;DHT22;331;48.414;9.938;2023-04-25T12:50:36;8.40;99.90
698;DHT22;331;48.414;9.938;2023-04-25T12:53:04;8.30;99.90
698;DHT22;331;48.414;9.938;2023-04-25T12:55:31;8.30;99.90
698;DHT22;331;48.414;9.938;2023-04-25T12:57:58;8.40;99.90
698;DHT22;331;48.414;9.938;2023-04-25T13:00:28;8.30;99.90
698;DHT22;331;48.414;9.938;2023-04-25T13:02:55;8.30;99.90
698;DHT22;331;48.414;9.938;2023-04-25T13:05:22;8.30;99.90
698;DHT22;331;48.414;9.938;2023-04-25T13:07:51;8.30;99.90
698;DHT22;331;48.414;9.938;2023-04-25T13:10:20;8.30;99.90
698;DHT22;331;48.414;9.938;2023-04-25T13:12:46;8.30;99.90
698;DHT22;331;48.414;9.938;2023-04-25T13:15:13;8.30;99.90
698;DHT22;331;48.414;9.938;2023-04-25T13:17:41;8.30;99.90
698;DHT22;331;48.414;9.938;2023-04-25T13:20:08;8.30;99.90
698;DHT22;331;48.414;9.938;2023-04-25T13:22:35;8.30;99.90
698;DHT22;331;48.414;9.938;2023-04-25T13:25:03;8.30;99.90
698;DHT22;331;48.414;9.938;2023-04-25T13:27:32;8.30;99.90
698;DHT22;331;48.414;9.938;2023-04-25T13:29:59;8.30;99.90
698;DHT22;331;48.414;9.938;2023-04-25T13:32:26;8.30;99.90
698;DHT22;331;48.414;9.938;2023-04-25T13:34:53;8.30;99.90
698;DHT22;331;48.414;9.938;2023-04-25T13:37:21;8.40;99.90
698;DHT22;331;48.414;9.938;2023-04-25T13:39:49;8.40;99.90
698;DHT22;331;48.414;9.938;2023-04-25T13:42:16;8.40;99.90
698;DHT22;331;48.414;9.938;2023-04-25T13:44:45;8.40;99.90
698;DHT22;331;48.414;9.938;2023-04-25T13:47:12;8.40;99.90
698;DHT22;331;48.414;9.938;2023-04-25T13:49:39;8.40;99.90
698;DHT22;331;48.414;9.938;2023-04-25T13:52:06;8.40;99.90
698;DHT22;331;48.414;9.938;2023-04-25T13:54:33;8.40;99.90
698;DHT22;331;48.414;9.938;2023-04-25T13:57:00;8.40;99.90
698;DHT22;331;48.414;9.938;2023-04-25T13:59:27;8.40;99.90
698;DHT22;331;48.414;9.938;2023-04-25T14:01:56;8.50;99.90
698;DHT22;331;48.414;9.938;2023-04-25T14:04:22;8.50;99.90
698;DHT22;331;48.414;9.938;2023-04-25T14:06:50;8.50;99.90
698;DHT22;331;48.414;9.938;2023-04-25T14:09:18;8.50;99.90
698;DHT22;331;48.414;9.938;2023-04-25T14:11:46;8.50;99.90
698;DHT22;331;48.414;9.938;2023-04-25T14:14:13;8.50;99.90
698;DHT22;331;48.414;9.938;2023-04-25T14:16:44;8.60;99.90
698;DHT22;331;48.414;9.938;2023-04-25T14:19:12;8.60;99.90
698;DHT22;331;48.414;9.938;2023-04-25T14:21:39;8.60;99.90
698;DHT22;331;48.414;9.938;2023-04-25T14:24:06;8.60;99.90
698;DHT22;331;48.414;9.938;2023-04-25T14:26:33;8.60;99.90
698;DHT22;331;48.414;9.938;2023-04-25T14:29:00;8.70;99.90
698;DHT22;331;48.414;9.938;2023-04-25T14:31:27;8.70;99.90
698;DHT22;331;48.414;9.938;2023-04-25T14:33:54;8.70;99.90
698;DHT22;331;48.414;9.938;2023-04-25T14:36:22;8.70;99.90
698;DHT22;331;48.414;9.938;2023-04-25T14:38:49;8.70;99.90
698;DHT22;331;48.414;9.938;2023-04-25T14:41:18;8.70;99.90
698;DHT22;331;48.414;9.938;2023-04-25T14:43:46;8.80;99.90
698;DHT22;331;48.414;9.938;2023-04-25T14:46:13;8.80;99.90
698;DHT22;331;48.414;9.938;2023-04-25T14:48:40;8.80;99.90
698;DHT22;331;48.414;9.938;2023-04-25T14:51:08;8.80;99.90
698;DHT22;331;48.414;9.938;2023-04-25T14:53:36;8.80;99.90
698;DHT22;331;48.414;9.938;2023-04-25T14:56:03;8.80;99.90
698;DHT22;331;48.414;9.938;2023-04-25T14:58:31;8.80;99.90
698;DHT22;331;48.414;9.938;2023-04-25T15:00:58;8.80;99.90
698;DHT22;331;48.414;9.938;2023-04-25T15:03:24;8.90;99.90
698;DHT22;331;48.414;9.938;2023-04-25T15:05:51;8.80;99.90
698;DHT22;331;48.414;9.938;2023-04-25T15:08:19;8.90;99.90
698;DHT22;331;48.414;9.938;2023-04-25T15:10:47;8.90;99.90
698;DHT22;331;48.414;9.938;2023-04-25T15:13:14;8.90;99.90
698;DHT22;331;48.414;9.938;2023-04-25T15:15:41;8.90;99.90
698;DHT22;331;48.414;9.938;2023-04-25T15:18:09;8.90;99.90
698;DHT22;331;48.414;9.938;2023-04-25T15:20:35;8.90;99.90
698;DHT22;331;48.414;9.938;2023-04-25T15:23:02;8.90;99.90
698;DHT22;331;48.414;9.938;2023-04-25T15:25:30;9.00;99.90
698;DHT22;331;48.414;9.938;2023-04-25T15:27:58;9.00;99.90
698;DHT22;331;48.414;9.938;2023-04-25T15:30:25;9.00;99.90
698;DHT22;331;48.414;9.938;2023-04-25T15:32:52;9.00;99.90
698;DHT22;331;48.414;9.938;2023-04-25T15:35:20;9.00;99.90
698;DHT22;331;48.414;9.938;2023-04-25T15:37:50;9.00;99.90
698;DHT22;331;48.414;9.938;2023-04-25T15:40:17;9.00;99.90
698;DHT22;331;48.414;9.938;2023-04-25T15:42:45;9.00;99.90
698;DHT22;331;48.414;9.938;2023-04-25T15:45:14;9.00;99.90
698;DHT22;331;48.414;9.938;2023-04-25T15:47:42;9.00;99.90
698;DHT22;331;48.414;9.938;2023-04-25T15:50:12;9.00;99.90
698;DHT22;331;48.414;9.938;2023-04-25T15:52:40;9.10;99.90
698;DHT22;331;48.414;9.938;2023-04-25T15:55:08;9.10;99.90
698;DHT22;331;48.414;9.938;2023-04-25T15:57:38;9.10;99.90
698;DHT22;331;48.414;9.938;2023-04-25T16:00:06;9.00;99.90
698;DHT22;331;48.414;9.938;2023-04-25T16:02:38;9.10;99.90
698;DHT22;331;48.414;9.938;2023-04-25T16:05:06;9.10;99.90
698;DHT22;331;48.414;9.938;2023-04-25T16:07:33;9.10;99.90
698;DHT22;331;48.414;9.938;2023-04-25T16:10:00;9.10;99.90
698;DHT22;331;48.414;9.938;2023-04-25T16:12:27;9.10;99.90
698;DHT22;331;48.414;9.938;2023-04-25T16:14:54;9.10;99.90
698;DHT22;331;48.414;9.938;2023-04-25T16:17:22;9.10;99.90
698;DHT22;331;48.414;9.938;2023-04-25T16:19:51;9.10;99.90
698;DHT22;331;48.414;9.938;2023-04-25T16:22:18;9.10;99.90
698;DHT22;331;48.414;9.938;2023-04-25T16:24:45;9.10;99.90
698;DHT22;331;48.414;9.938;2023-04-25T16:27:12;9.10;99.90
698;DHT22;331;48.414;9.938;2023-04-25T16:29:39;9.10;99.90
698;DHT22;331;48.414;9.938;2023-04-25T16:32:06;9.10;99.90
698;DHT22;331;48.414;9.938;2023-04-25T16:34:33;9.10;99.90
698;DHT22;331;48.414;9.938;2023-04-25T16:37:02;9.20;99.90
698;DHT22;331;48.414;9.938;2023-04-25T16:39:29;9.20;99.90
698;DHT22;331;48.414;9.938;2023-04-25T16:41:56;9.10;99.90
698;DHT22;331;48.414;9.938;2023-04-25T16:44:23;9.20;99.90
698;DHT22;331;48.414;9.938;2023-04-25T16:46:50;9.20;99.90
698;DHT22;331;48.414;9.938;2023-04-25T16:49:17;9.20;99.90
698;DHT22;331;48.414;9.938;2023-04-25T16:51:44;9.20;99.90
698;DHT22;331;48.414;9.938;2023-04-25T16:54:13;9.20;99.90
698;DHT22;331;48.414;9.938;2023-04-25T16:56:40;9.20;99.90
698;DHT22;331;48.414;9.938;2023-04-25T16:59:08;9.20;99.90
698;DHT22;331;48.414;9.938;2023-04-25T17:01:35;9.20;99.90
698;DHT22;331;48.414;9.938;2023-04-25T17:04:02;9.20;99.90
698;DHT22;331;48.414;9.938;2023-04-25T17:06:28;9.20;99.90
698;DHT22;331;48.414;9.938;2023-04-25T17:08:55;9.20;99.90
698;DHT22;331;48.414;9.938;2023-04-25T17:11:24;9.20;99.90
698;DHT22;331;48.414;9.938;2023-04-25T17:13:51;9.20;99.90